Larvik — C6VC2 — position and weather

sailwx.info

Track history (hours):
 
Tides and Currents Weather Stations Pressure Air Temp Water Temp Dewpoint Dewpoint Depression Visibility Wind Speed Wind Dir Waves Ship Positions

Larvik

Last reported at 2015-Aug-20 00:33 UTC. Time now 2015-Sep-01 18:17 UTC.
Position N 27°56' W 115°52'.
Warning: this ship's position is 12 days out of date.

Length 214 m; draft 7.2 m.

Type: Tanker. MMSI: 308371000.

Date/timePositionNaut miles runAvg speedWind from/ knotsBaromVisibWave heightAir tempDewpointWater temp
2015-Aug-20 00:33N 27°56' W 115°52'1312.5
2015-Aug-19 23:33N 28°06' W 116°01'1312.8
2015-Aug-19 22:31N 28°17' W 116°10'1212.6
2015-Aug-19 21:33N 28°28' W 116°17'1212.4
2015-Aug-19 20:33N 28°38' W 116°25'1212.3
2015-Aug-19 19:33N 28°48' W 116°33'1211.9
2015-Aug-19 18:33N 28°58' W 116°40'1212.0
2015-Aug-19 17:33N 29°08' W 116°48'1211.8
2015-Aug-19 16:33N 29°18' W 116°56'1212.3
2015-Aug-19 15:33N 29°28' W 117°03'1612.3
2015-Aug-19 14:18N 29°41' W 117°13'1012.4
2015-Aug-19 13:31N 29°49' W 117°19'1312.2
2015-Aug-19 12:29N 29°60' W 117°27'1212.5
2015-Aug-19 11:33N 30°09' W 117°35'1312.6
2015-Aug-19 10:33N 30°20' W 117°42'1212.3
2015-Aug-19 09:33N 30°31' W 117°48'1211.9
2015-Aug-19 08:33N 30°43' W 117°52'1212.0
2015-Aug-19 07:33N 30°54' W 117°56'1212.3
2015-Aug-19 06:33N 31°06' W 118°00'1212.1
2015-Aug-19 05:33N 31°17' W 118°05'1212.0
2015-Aug-19 04:33N 31°29' W 118°09'1211.8
2015-Aug-19 03:33N 31°40' W 118°13'1010.0
2015-Aug-19 02:33N 31°48' W 118°20'1010.0
2015-Aug-19 01:33N 31°53' W 118°30'1010.1
2015-Aug-19 00:33N 31°58' W 118°41'1010.2
2015-Aug-18 23:33N 32°03' W 118°51'10 9.9
2015-Aug-18 22:33N 32°07' W 119°02'8 8.2
2015-Aug-18 21:33N 32°11' W 119°10'8 7.9
2015-Aug-18 20:33N 32°14' W 119°19'8 7.6
2015-Aug-18 19:33N 32°15' W 119°28'8 7.9
2015-Aug-18 18:33N 32°21' W 119°35'8 8.3
2015-Aug-18 17:33N 32°27' W 119°41'8 8.2
2015-Aug-18 16:33N 32°33' W 119°47'1111.1
2015-Aug-18 15:33N 32°42' W 119°55'1212.2
2015-Aug-18 14:33N 32°51' W 120°04'1212.2
2015-Aug-18 13:33N 33°01' W 120°13'1212.3
2015-Aug-18 12:33N 33°11' W 120°22'1212.0
2015-Aug-18 11:33N 33°20' W 120°32'1211.9
2015-Aug-18 10:33N 33°29' W 120°40'1212.1
2015-Aug-18 09:33N 33°39' W 120°50'1211.8
2015-Aug-18 08:33N 33°48' W 120°59'1212.2
2015-Aug-18 07:33N 33°57' W 121°08'1211.9
2015-Aug-18 06:33N 34°07' W 121°17'1211.9
2015-Aug-18 05:33N 34°17' W 121°23'1211.9
2015-Aug-18 04:33N 34°28' W 121°28'411.7
2015-Aug-18 04:11N 34°32' W 121°30'111.4
2015-Aug-18 04:07N 34°33' W 121°30'611.2
2015-Aug-18 03:33N 34°39' W 121°33'1211.7
2015-Aug-18 02:33N 34°50' W 121°38'1211.9
2015-Aug-18 01:33N 35°01' W 121°43'1211.5
2015-Aug-18 00:33N 35°12' W 121°48'1211.3
2015-Aug-17 23:29N 35°23' W 121°53'3612.2
2015-Aug-17 20:31N 35°57' W 122°09'1212.1
2015-Aug-17 19:33N 36°08' W 122°14'1312.6
2015-Aug-17 18:33N 36°20' W 122°20'1312.5
2015-Aug-17 17:33N 36°31' W 122°25'1312.8
2015-Aug-17 16:33N 36°43' W 122°31'1212.5
2015-Aug-17 15:33N 36°55' W 122°36'1212.2
2015-Aug-17 14:33N 37°07' W 122°42'1211.8
2015-Aug-17 13:33N 37°18' W 122°44'1212.1
2015-Aug-17 12:33N 37°30' W 122°44'1211.6
2015-Aug-17 11:33N 37°42' W 122°42'1110.9
2015-Aug-17 10:33N 37°48' W 122°31'9 9.4
2015-Aug-17 09:33N 37°44' W 122°20'2 1.5
2015-Aug-17 08:31N 37°43' W 122°19'0 0.0
2015-Aug-17 07:31N 37°43' W 122°19'0 0.0
2015-Aug-17 06:31N 37°43' W 122°19'0 0.0
2015-Aug-17 05:31N 37°43' W 122°19'0 0.0
2015-Aug-17 04:31N 37°43' W 122°19'0 0.1
2015-Aug-17 03:31N 37°43' W 122°19'0 0.1
2015-Aug-17 02:31N 37°43' W 122°19'0 0.0
2015-Aug-17 01:31N 37°43' W 122°19'0 0.0
2015-Aug-17 00:31N 37°43' W 122°19'6 6.4
2015-Aug-16 23:33N 37°48' W 122°23'1211.8
2015-Aug-16 22:33N 38°00' W 122°25'1110.8
2015-Aug-16 21:33N 38°03' W 122°12'3 0.6
2015-Aug-16 16:25N 38°02' W 122°08'0 0.0
2015-Aug-16 15:31N 38°02' W 122°08'0 0.0
2015-Aug-16 14:25N 38°02' W 122°08'0 0.0
2015-Aug-16 13:31N 38°02' W 122°08'0 0.0
2015-Aug-16 12:19N 38°02' W 122°08'0 0.0
2015-Aug-14 21:34N 38°02' W 122°08'8 7.9
2015-Aug-14 20:33N 38°03' W 122°18'10 9.7
2015-Aug-14 19:33N 37°57' W 122°27'8 7.5
2015-Aug-14 18:33N 37°49' W 122°28'1110.6
2015-Aug-14 17:33N 37°46' W 122°41'9 9.5
2015-Aug-14 16:33N 37°49' W 122°52'5 5.0
2015-Aug-14 15:34N 37°51' W 122°58'5 5.3
2015-Aug-14 14:33N 37°54' W 123°03'7 6.6
2015-Aug-14 13:34N 37°57' W 123°11'7 7.2
2015-Aug-14 12:33N 38°03' W 123°17'1111.1
2015-Aug-14 11:34N 38°11' W 123°25'1212.0
2015-Aug-14 10:33N 38°21' W 123°34'1212.2
2015-Aug-14 09:33N 38°31' W 123°44'1212.3
2015-Aug-14 08:32N 38°41' W 123°53'1411.9
2015-Aug-14 07:22N 38°52' W 124°03'30312.2
2015-Aug-13 06:26N 43°53' W 125°01'1112.3
2015-Aug-13 05:33N 44°03' W 125°01'1212.4
2015-Aug-13 04:33N 44°16' W 125°01'1312.7
2015-Aug-13 03:33N 44°28' W 125°01'1312.7
2015-Aug-13 02:33N 44°41' W 125°02'1212.1
2015-Aug-13 01:32N 44°53' W 125°03'1211.9
2015-Aug-13 00:33N 45°05' W 125°04'1211.9
2015-Aug-12 23:33N 45°17' W 125°05'1211.8
2015-Aug-12 22:33N 45°29' W 125°05'1211.7
2015-Aug-12 21:33N 45°40' W 125°06'1212.4
2015-Aug-12 20:33N 45°53' W 125°07'1312.9
2015-Aug-12 19:33N 46°06' W 125°08'1312.9
2015-Aug-12 18:33N 46°18' W 125°09'1312.9
2015-Aug-12 17:33N 46°31' W 125°10'1313.0
2015-Aug-12 16:33N 46°44' W 125°11'1312.7
2015-Aug-12 15:33N 46°57' W 125°12'1312.8
2015-Aug-12 14:33N 47°10' W 125°13'1212.1
2015-Aug-12 13:33N 47°22' W 125°15'1211.9
2015-Aug-12 12:34N 47°34' W 125°17'1212.3
2015-Aug-12 11:33N 47°46' W 125°18'1211.8
2015-Aug-12 10:33N 47°58' W 125°14'1211.5
2015-Aug-12 09:33N 48°08' W 125°07'1212.2
2015-Aug-12 08:33N 48°21' W 125°08'1111.4
2015-Aug-12 07:33N 48°31' W 125°01'2511.8
2015-Aug-12 05:24N 48°25' W 124°23'1112.5
2015-Aug-12 04:32N 48°21' W 124°08'1312.9
2015-Aug-12 03:33N 48°17' W 123°50'1313.2
2015-Aug-12 02:33N 48°16' W 123°30'1010.3
2015-Aug-12 01:33N 48°23' W 123°18'10 9.8
2015-Aug-12 00:33N 48°32' W 123°13'10 9.8
2015-Aug-11 23:33N 48°42' W 123°15'9 9.4
2015-Aug-11 22:34N 48°47' W 123°02'9 8.9
2015-Aug-11 21:33N 48°54' W 123°09'1211.8
2015-Aug-11 20:33N 49°03' W 123°22'1212.2
2015-Aug-11 19:33N 49°15' W 123°20'9 8.6
2015-Aug-11 18:33N 49°19' W 123°09'6 6.0
2015-Aug-11 17:33N 49°18' W 123°00'1 1.5
2015-Aug-11 16:33N 49°18' W 122°58'1 0.5
2015-Aug-11 15:32N 49°17' W 122°57'0 0.0
2015-Aug-11 14:32N 49°17' W 122°57'0 0.0
2015-Aug-11 13:32N 49°17' W 122°57'0 0.0
2015-Aug-11 12:32N 49°17' W 122°57'0 0.0
2015-Aug-11 11:32N 49°17' W 122°57'0 0.0
2015-Aug-11 10:32N 49°17' W 122°57'0 0.0
2015-Aug-11 09:32N 49°17' W 122°57'0 0.0
2015-Aug-11 08:32N 49°17' W 122°57'0 0.0
2015-Aug-11 07:32N 49°17' W 122°57'0 0.0
2015-Aug-11 06:32N 49°17' W 122°57'0 0.0
2015-Aug-11 05:32N 49°17' W 122°57'0 0.0
2015-Aug-11 04:32N 49°17' W 122°57'0 0.0
2015-Aug-11 03:32N 49°17' W 122°57'0 0.0
2015-Aug-11 02:32N 49°17' W 122°57'0 0.0
2015-Aug-11 01:32N 49°17' W 122°57'0 0.0
2015-Aug-11 00:32N 49°17' W 122°57'0 0.0
2015-Aug-10 23:32N 49°17' W 122°57'0 0.0
2015-Aug-10 22:32N 49°17' W 122°57'0 0.0
2015-Aug-10 21:32N 49°17' W 122°57'0 0.0
2015-Aug-10 20:32N 49°17' W 122°57'0 0.0
2015-Aug-10 19:32N 49°17' W 122°57'0 0.0
2015-Aug-10 18:32N 49°17' W 122°57'0 0.0
2015-Aug-10 17:32N 49°17' W 122°57'0 0.0
2015-Aug-10 16:32N 49°17' W 122°57'0 0.0
2015-Aug-10 15:32N 49°17' W 122°57'0 0.0
2015-Aug-10 14:32N 49°17' W 122°57'0 0.1
2015-Aug-10 13:34N 49°18' W 122°57'1 0.5
2015-Aug-10 12:31N 49°18' W 122°56'0 0.0
2015-Aug-10 11:31N 49°18' W 122°56'0 0.0
2015-Aug-10 10:31N 49°18' W 122°56'0 0.1
2015-Aug-10 09:31N 49°18' W 122°56'0 0.0
2015-Aug-10 08:31N 49°18' W 122°56'0 0.0
2015-Aug-10 07:31N 49°18' W 122°56'0 0.1
2015-Aug-10 06:31N 49°18' W 122°56'0 0.1
2015-Aug-10 05:31N 49°18' W 122°56'0 0.1
2015-Aug-10 04:31N 49°18' W 122°56'0 0.1
2015-Aug-10 03:31N 49°18' W 122°56'0 0.0
2015-Aug-10 02:31N 49°18' W 122°56'0 0.0
2015-Aug-10 01:31N 49°18' W 122°56'  
Track history (hours):
 
Tides and Currents Weather Stations Pressure Air Temp Water Temp Dewpoint Dewpoint Depression Visibility Wind Speed Wind Dir Waves Ship Positions

Larvik

Last reported at 2015-Aug-20 00:33 UTC. Time now 2015-Sep-01 18:17 UTC.
Position N 27°56' W 115°52'.
Warning: this ship's position is 12 days out of date.

Length 214 m; draft 7.2 m.

Type: Tanker. MMSI: 308371000.

Date/timePositionNaut miles runAvg speedWind from/ knotsBaromVisibWave heightAir tempDewpointWater temp
2015-Aug-20 00:33N 27°56' W 115°52'1312.5
2015-Aug-19 23:33N 28°06' W 116°01'1312.8
2015-Aug-19 22:31N 28°17' W 116°10'1212.6
2015-Aug-19 21:33N 28°28' W 116°17'1212.4
2015-Aug-19 20:33N 28°38' W 116°25'1212.3
2015-Aug-19 19:33N 28°48' W 116°33'1211.9
2015-Aug-19 18:33N 28°58' W 116°40'1212.0
2015-Aug-19 17:33N 29°08' W 116°48'1211.8
2015-Aug-19 16:33N 29°18' W 116°56'1212.3
2015-Aug-19 15:33N 29°28' W 117°03'1612.3
2015-Aug-19 14:18N 29°41' W 117°13'1012.4
2015-Aug-19 13:31N 29°49' W 117°19'1312.2
2015-Aug-19 12:29N 29°60' W 117°27'1212.5
2015-Aug-19 11:33N 30°09' W 117°35'1312.6
2015-Aug-19 10:33N 30°20' W 117°42'1212.3
2015-Aug-19 09:33N 30°31' W 117°48'1211.9
2015-Aug-19 08:33N 30°43' W 117°52'1212.0
2015-Aug-19 07:33N 30°54' W 117°56'1212.3
2015-Aug-19 06:33N 31°06' W 118°00'1212.1
2015-Aug-19 05:33N 31°17' W 118°05'1212.0
2015-Aug-19 04:33N 31°29' W 118°09'1211.8
2015-Aug-19 03:33N 31°40' W 118°13'1010.0
2015-Aug-19 02:33N 31°48' W 118°20'1010.0
2015-Aug-19 01:33N 31°53' W 118°30'1010.1
2015-Aug-19 00:33N 31°58' W 118°41'1010.2
2015-Aug-18 23:33N 32°03' W 118°51'10 9.9
2015-Aug-18 22:33N 32°07' W 119°02'8 8.2
2015-Aug-18 21:33N 32°11' W 119°10'8 7.9
2015-Aug-18 20:33N 32°14' W 119°19'8 7.6
2015-Aug-18 19:33N 32°15' W 119°28'8 7.9
2015-Aug-18 18:33N 32°21' W 119°35'8 8.3
2015-Aug-18 17:33N 32°27' W 119°41'8 8.2
2015-Aug-18 16:33N 32°33' W 119°47'1111.1
2015-Aug-18 15:33N 32°42' W 119°55'1212.2
2015-Aug-18 14:33N 32°51' W 120°04'1212.2
2015-Aug-18 13:33N 33°01' W 120°13'1212.3
2015-Aug-18 12:33N 33°11' W 120°22'1212.0
2015-Aug-18 11:33N 33°20' W 120°32'1211.9
2015-Aug-18 10:33N 33°29' W 120°40'1212.1
2015-Aug-18 09:33N 33°39' W 120°50'1211.8
2015-Aug-18 08:33N 33°48' W 120°59'1212.2
2015-Aug-18 07:33N 33°57' W 121°08'1211.9
2015-Aug-18 06:33N 34°07' W 121°17'1211.9
2015-Aug-18 05:33N 34°17' W 121°23'1211.9
2015-Aug-18 04:33N 34°28' W 121°28'411.7
2015-Aug-18 04:11N 34°32' W 121°30'111.4
2015-Aug-18 04:07N 34°33' W 121°30'611.2
2015-Aug-18 03:33N 34°39' W 121°33'1211.7
2015-Aug-18 02:33N 34°50' W 121°38'1211.9
2015-Aug-18 01:33N 35°01' W 121°43'1211.5
2015-Aug-18 00:33N 35°12' W 121°48'1211.3
2015-Aug-17 23:29N 35°23' W 121°53'3612.2
2015-Aug-17 20:31N 35°57' W 122°09'1212.1
2015-Aug-17 19:33N 36°08' W 122°14'1312.6
2015-Aug-17 18:33N 36°20' W 122°20'1312.5
2015-Aug-17 17:33N 36°31' W 122°25'1312.8
2015-Aug-17 16:33N 36°43' W 122°31'1212.5
2015-Aug-17 15:33N 36°55' W 122°36'1212.2
2015-Aug-17 14:33N 37°07' W 122°42'1211.8
2015-Aug-17 13:33N 37°18' W 122°44'1212.1
2015-Aug-17 12:33N 37°30' W 122°44'1211.6
2015-Aug-17 11:33N 37°42' W 122°42'1110.9
2015-Aug-17 10:33N 37°48' W 122°31'9 9.4
2015-Aug-17 09:33N 37°44' W 122°20'2 1.5
2015-Aug-17 08:31N 37°43' W 122°19'0 0.0
2015-Aug-17 07:31N 37°43' W 122°19'0 0.0
2015-Aug-17 06:31N 37°43' W 122°19'0 0.0
2015-Aug-17 05:31N 37°43' W 122°19'0 0.0
2015-Aug-17 04:31N 37°43' W 122°19'0 0.1
2015-Aug-17 03:31N 37°43' W 122°19'0 0.1
2015-Aug-17 02:31N 37°43' W 122°19'0 0.0
2015-Aug-17 01:31N 37°43' W 122°19'0 0.0
2015-Aug-17 00:31N 37°43' W 122°19'6 6.4
2015-Aug-16 23:33N 37°48' W 122°23'1211.8
2015-Aug-16 22:33N 38°00' W 122°25'1110.8
2015-Aug-16 21:33N 38°03' W 122°12'3 0.6
2015-Aug-16 16:25N 38°02' W 122°08'0 0.0
2015-Aug-16 15:31N 38°02' W 122°08'0 0.0
2015-Aug-16 14:25N 38°02' W 122°08'0 0.0
2015-Aug-16 13:31N 38°02' W 122°08'0 0.0
2015-Aug-16 12:19N 38°02' W 122°08'0 0.0
2015-Aug-14 21:34N 38°02' W 122°08'8 7.9
2015-Aug-14 20:33N 38°03' W 122°18'10 9.7
2015-Aug-14 19:33N 37°57' W 122°27'8 7.5
2015-Aug-14 18:33N 37°49' W 122°28'1110.6
2015-Aug-14 17:33N 37°46' W 122°41'9 9.5
2015-Aug-14 16:33N 37°49' W 122°52'5 5.0
2015-Aug-14 15:34N 37°51' W 122°58'5 5.3
2015-Aug-14 14:33N 37°54' W 123°03'7 6.6
2015-Aug-14 13:34N 37°57' W 123°11'7 7.2
2015-Aug-14 12:33N 38°03' W 123°17'1111.1
2015-Aug-14 11:34N 38°11' W 123°25'1212.0
2015-Aug-14 10:33N 38°21' W 123°34'1212.2
2015-Aug-14 09:33N 38°31' W 123°44'1212.3
2015-Aug-14 08:32N 38°41' W 123°53'1411.9
2015-Aug-14 07:22N 38°52' W 124°03'30312.2
2015-Aug-13 06:26N 43°53' W 125°01'1112.3
2015-Aug-13 05:33N 44°03' W 125°01'1212.4
2015-Aug-13 04:33N 44°16' W 125°01'1312.7
2015-Aug-13 03:33N 44°28' W 125°01'1312.7
2015-Aug-13 02:33N 44°41' W 125°02'1212.1
2015-Aug-13 01:32N 44°53' W 125°03'1211.9
2015-Aug-13 00:33N 45°05' W 125°04'1211.9
2015-Aug-12 23:33N 45°17' W 125°05'1211.8
2015-Aug-12 22:33N 45°29' W 125°05'1211.7
2015-Aug-12 21:33N 45°40' W 125°06'1212.4
2015-Aug-12 20:33N 45°53' W 125°07'1312.9
2015-Aug-12 19:33N 46°06' W 125°08'1312.9
2015-Aug-12 18:33N 46°18' W 125°09'1312.9
2015-Aug-12 17:33N 46°31' W 125°10'1313.0
2015-Aug-12 16:33N 46°44' W 125°11'1312.7
2015-Aug-12 15:33N 46°57' W 125°12'1312.8
2015-Aug-12 14:33N 47°10' W 125°13'1212.1
2015-Aug-12 13:33N 47°22' W 125°15'1211.9
2015-Aug-12 12:34N 47°34' W 125°17'1212.3
2015-Aug-12 11:33N 47°46' W 125°18'1211.8
2015-Aug-12 10:33N 47°58' W 125°14'1211.5
2015-Aug-12 09:33N 48°08' W 125°07'1212.2
2015-Aug-12 08:33N 48°21' W 125°08'1111.4
2015-Aug-12 07:33N 48°31' W 125°01'2511.8
2015-Aug-12 05:24N 48°25' W 124°23'1112.5
2015-Aug-12 04:32N 48°21' W 124°08'1312.9
2015-Aug-12 03:33N 48°17' W 123°50'1313.2
2015-Aug-12 02:33N 48°16' W 123°30'1010.3
2015-Aug-12 01:33N 48°23' W 123°18'10 9.8
2015-Aug-12 00:33N 48°32' W 123°13'10 9.8
2015-Aug-11 23:33N 48°42' W 123°15'9 9.4
2015-Aug-11 22:34N 48°47' W 123°02'9 8.9
2015-Aug-11 21:33N 48°54' W 123°09'1211.8
2015-Aug-11 20:33N 49°03' W 123°22'1212.2
2015-Aug-11 19:33N 49°15' W 123°20'9 8.6
2015-Aug-11 18:33N 49°19' W 123°09'6 6.0
2015-Aug-11 17:33N 49°18' W 123°00'1 1.5
2015-Aug-11 16:33N 49°18' W 122°58'1 0.5
2015-Aug-11 15:32N 49°17' W 122°57'0 0.0
2015-Aug-11 14:32N 49°17' W 122°57'0 0.0
2015-Aug-11 13:32N 49°17' W 122°57'0 0.0
2015-Aug-11 12:32N 49°17' W 122°57'0 0.0
2015-Aug-11 11:32N 49°17' W 122°57'0 0.0
2015-Aug-11 10:32N 49°17' W 122°57'0 0.0
2015-Aug-11 09:32N 49°17' W 122°57'0 0.0
2015-Aug-11 08:32N 49°17' W 122°57'0 0.0
2015-Aug-11 07:32N 49°17' W 122°57'0 0.0
2015-Aug-11 06:32N 49°17' W 122°57'0 0.0
2015-Aug-11 05:32N 49°17' W 122°57'0 0.0
2015-Aug-11 04:32N 49°17' W 122°57'0 0.0
2015-Aug-11 03:32N 49°17' W 122°57'0 0.0
2015-Aug-11 02:32N 49°17' W 122°57'0 0.0
2015-Aug-11 01:32N 49°17' W 122°57'0 0.0
2015-Aug-11 00:32N 49°17' W 122°57'0 0.0
2015-Aug-10 23:32N 49°17' W 122°57'0 0.0
2015-Aug-10 22:32N 49°17' W 122°57'0 0.0
2015-Aug-10 21:32N 49°17' W 122°57'0 0.0
2015-Aug-10 20:32N 49°17' W 122°57'0 0.0
2015-Aug-10 19:32N 49°17' W 122°57'0 0.0
2015-Aug-10 18:32N 49°17' W 122°57'0 0.0
2015-Aug-10 17:32N 49°17' W 122°57'0 0.0
2015-Aug-10 16:32N 49°17' W 122°57'0 0.0
2015-Aug-10 15:32N 49°17' W 122°57'0 0.0
2015-Aug-10 14:32N 49°17' W 122°57'0 0.1
2015-Aug-10 13:34N 49°18' W 122°57'1 0.5
2015-Aug-10 12:31N 49°18' W 122°56'0 0.0
2015-Aug-10 11:31N 49°18' W 122°56'0 0.0
2015-Aug-10 10:31N 49°18' W 122°56'0 0.1
2015-Aug-10 09:31N 49°18' W 122°56'0 0.0
2015-Aug-10 08:31N 49°18' W 122°56'0 0.0
2015-Aug-10 07:31N 49°18' W 122°56'0 0.1
2015-Aug-10 06:31N 49°18' W 122°56'0 0.1
2015-Aug-10 05:31N 49°18' W 122°56'0 0.1
2015-Aug-10 04:31N 49°18' W 122°56'0 0.1
2015-Aug-10 03:31N 49°18' W 122°56'0 0.0
2015-Aug-10 02:31N 49°18' W 122°56'0 0.0
2015-Aug-10 01:31N 49°18' W 122°56'  

Dump ship's entire track history